Time;durP1;ratioP1;P1;durP2;ratioP2;P2;SDS_P1;SDS_P2;PMS_P1;PMS_P2;Temp;Humidity;BMP_temperature;BMP_pressure;BME280_temperature;BME280_humidity;BME280_pressure;Samples;Min_cycle;Max_cycle;Signal;HPM_P1;HPM_P2
2023/12/10 00:01:09;;;;;;;;;;;;;;;8.21;100.00;99570.22;5116299;28;19955;-40
2023/12/10 00:03:34;;;;;;;;;;;;;;;8.20;100.00;99568.59;5115530;28;19915;-40
2023/12/10 00:06:00;;;;;;;;;;;;;;;8.20;100.00;99562.41;5116064;28;19919;-38
2023/12/10 00:08:25;;;;;;;;;;;;;;;8.20;100.00;99565.09;5115286;28;20014;-39
2023/12/10 00:10:50;;;;;;;;;;;;;;;8.18;100.00;99570.63;5115403;28;19920;-40
2023/12/10 00:13:15;;;;;;;;;;;;;;;8.24;100.00;99569.00;5115781;28;20365;-40
2023/12/10 00:15:41;;;;;;;;;;;;;;;8.25;100.00;99570.69;5115339;28;20022;-40
2023/12/10 00:18:06;;;;;;;;;;;;;;;8.25;100.00;99559.97;5115519;28;20270;-41
2023/12/10 00:20:31;;;;;;;;;;;;;;;8.23;100.00;99565.50;5115080;28;19927;-42
2023/12/10 00:22:56;;;;;;;;;;;;;;;8.25;100.00;99565.31;5115525;28;20385;-42
2023/12/10 00:25:22;;;;;;;;;;;;;;;8.31;100.00;99572.56;5115518;28;19996;-40
2023/12/10 00:27:47;;;;;;;;;;;;;;;8.35;100.00;99560.44;5114797;28;19928;-42
2023/12/10 00:30:13;;;;;;;;;;;;;;;8.33;100.00;99567.84;5115365;28;20243;-41
2023/12/10 00:32:38;;;;;;;;;;;;;;;8.31;100.00;99561.84;5100864;28;19924;-41
2023/12/10 00:35:03;;;;;;;;;;;;;;;8.31;100.00;99559.97;5114796;28;19924;-40
2023/12/10 00:37:28;;;;;;;;;;;;;;;8.32;100.00;99569.69;5114916;28;19995;-41
2023/12/10 00:39:54;;;;;;;;;;;;;;;8.33;100.00;99568.66;5114880;28;20018;-40
2023/12/10 00:42:20;;;;;;;;;;;;;;;8.32;100.00;99576.88;5115338;28;19930;-43
2023/12/10 00:44:45;;;;;;;;;;;;;;;8.34;100.00;99582.88;5114963;28;20426;-42
2023/12/10 00:47:10;;;;;;;;;;;;;;;8.42;100.00;99566.66;5115269;28;19916;-41
2023/12/10 00:49:36;;;;;;;;;;;;;;;8.41;100.00;99562.34;5113230;28;19923;-40
2023/12/10 00:52:02;;;;;;;;;;;;;;;8.47;100.00;99585.66;5115208;28;20431;-40
2023/12/10 00:54:29;;;;;;;;;;;;;;;8.51;100.00;99586.94;5115252;28;20313;-39
2023/12/10 00:56:55;;;;;;;;;;;;;;;8.52;100.00;99577.84;5115678;28;20022;-40
2023/12/10 00:59:20;;;;;;;;;;;;;;;8.60;100.00;99579.53;5116045;28;19959;-39
2023/12/10 01:01:45;;;;;;;;;;;;;;;8.70;100.00;99571.13;5124342;28;20365;-41
2023/12/10 01:04:11;;;;;;;;;;;;;;;8.75;100.00;99582.91;5123013;28;19966;-38
2023/12/10 01:06:36;;;;;;;;;;;;;;;8.78;100.00;99582.50;5117985;28;19998;-39
2023/12/10 01:09:01;;;;;;;;;;;;;;;8.85;100.00;99570.97;5115714;28;19919;-39
2023/12/10 01:11:26;;;;;;;;;;;;;;;8.83;100.00;99576.53;5115667;28;19915;-39
2023/12/10 01:13:52;;;;;;;;;;;;;;;8.83;100.00;99587.25;5115558;28;19969;-40
2023/12/10 01:16:17;;;;;;;;;;;;;;;8.86;100.00;99584.16;5115035;28;19920;-39
2023/12/10 01:18:43;;;;;;;;;;;;;;;8.86;100.00;99602.94;5115221;28;19920;-39
2023/12/10 01:21:09;;;;;;;;;;;;;;;8.88;100.00;99582.13;5114588;28;19924;-39
2023/12/10 01:23:34;;;;;;;;;;;;;;;8.84;100.00;99594.25;5114652;28;20423;-39
2023/12/10 01:26:00;;;;;;;;;;;;;;;8.90;100.00;99606.91;5114994;28;19962;-39
2023/12/10 01:28:25;;;;;;;;;;;;;;;8.95;100.00;99585.66;5115347;28;20301;-39
2023/12/10 01:30:50;;;;;;;;;;;;;;;8.94;100.00;99580.47;5115618;28;19915;-39
2023/12/10 01:33:15;;;;;;;;;;;;;;;8.98;100.00;99593.28;5115068;28;19929;-40
2023/12/10 01:35:41;;;;;;;;;;;;;;;8.96;100.00;99622.19;5114011;28;19927;-39
2023/12/10 01:38:06;;;;;;;;;;;;;;;8.94;100.00;99607.31;5113736;28;19926;-39
2023/12/10 01:40:32;;;;;;;;;;;;;;;8.87;100.00;99609.13;5114296;28;20250;-40
2023/12/10 01:42:58;;;;;;;;;;;;;;;8.90;100.00;99606.91;5113683;28;19923;-41
2023/12/10 01:45:23;;;;;;;;;;;;;;;8.91;100.00;99619.28;5113221;28;19968;-40
2023/12/10 01:47:52;;;;;;;;;;;;;;;8.95;100.00;99625.91;5113254;28;19931;-38
2023/12/10 01:50:18;;;;;;;;;;;;;;;8.93;100.00;99617.22;5114129;28;20018;-38
2023/12/10 01:52:44;;;;;;;;;;;;;;;8.94;100.00;99629.59;5113913;28;20405;-40
2023/12/10 01:55:10;;;;;;;;;;;;;;;8.94;100.00;99632.28;5114077;28;20026;-38
2023/12/10 01:57:36;;;;;;;;;;;;;;;8.97;100.00;99633.75;5114143;28;19920;-39
2023/12/10 02:00:06;;;;;;;;;;;;;;;8.97;100.00;99629.19;5115443;28;19961;-39
2023/12/10 02:02:31;;;;;;;;;;;;;;;9.00;100.00;99655.66;5115961;28;20462;-38
2023/12/10 02:04:56;;;;;;;;;;;;;;;9.01;100.00;99670.72;5114350;28;19947;-39
2023/12/10 02:07:21;;;;;;;;;;;;;;;8.93;100.00;99665.53;5112497;28;19916;-40
2023/12/10 02:09:47;;;;;;;;;;;;;;;8.82;100.00;99612.44;5113113;28;19959;-39
2023/12/10 02:12:12;;;;;;;;;;;;;;;8.79;100.00;99669.16;5113691;28;19923;-39
2023/12/10 02:14:37;;;;;;;;;;;;;;;8.79;100.00;99685.25;5112425;28;19916;-39
2023/12/10 02:17:03;;;;;;;;;;;;;;;8.76;100.00;99664.19;5113421;28;19964;-39
2023/12/10 02:19:28;;;;;;;;;;;;;;;8.72;100.00;99681.72;5113798;28;20373;-39
2023/12/10 02:21:53;;;;;;;;;;;;;;;8.70;100.00;99670.38;5113650;28;19919;-40
2023/12/10 02:24:21;;;;;;;;;;;;;;;8.69;100.00;99680.28;5112319;28;19916;-40
2023/12/10 02:26:46;;;;;;;;;;;;;;;8.67;100.00;99703.78;5111371;28;19980;-38
2023/12/10 02:29:11;;;;;;;;;;;;;;;8.63;100.00;99704.34;5113362;28;20014;-38
2023/12/10 02:31:37;;;;;;;;;;;;;;;8.57;100.00;99698.75;5113697;28;20320;-39
2023/12/10 02:34:02;;;;;;;;;;;;;;;8.61;100.00;99714.44;5113091;28;19949;-39
2023/12/10 02:36:27;;;;;;;;;;;;;;;8.55;100.00;99724.13;5113040;28;20009;-38
2023/12/10 02:38:52;;;;;;;;;;;;;;;8.52;100.00;99711.94;5112843;28;19965;-39
2023/12/10 02:41:18;;;;;;;;;;;;;;;8.50;100.00;99715.81;5113088;28;19920;-39
2023/12/10 02:43:43;;;;;;;;;;;;;;;8.48;100.00;99725.94;5114074;28;20027;-39
2023/12/10 02:46:08;;;;;;;;;;;;;;;8.45;100.00;99727.16;5113550;28;19920;-39
2023/12/10 02:48:33;;;;;;;;;;;;;;;8.42;100.00;99746.28;5112588;28;19920;-41
2023/12/10 02:50:59;;;;;;;;;;;;;;;8.45;100.00;99724.47;5115065;28;19927;-39
2023/12/10 02:53:24;;;;;;;;;;;;;;;8.48;100.00;99753.59;5120843;28;19921;-40
2023/12/10 02:55:49;;;;;;;;;;;;;;;8.49;100.00;99771.31;5122300;28;20274;-40
2023/12/10 02:58:15;;;;;;;;;;;;;;;8.52;100.00;99738.75;5125896;28;20388;-40
2023/12/10 03:00:41;;;;;;;;;;;;;;;8.55;100.00;99737.53;5126212;28;19920;-39
2023/12/10 03:03:06;;;;;;;;;;;;;;;8.56;100.00;99748.06;5126478;28;19979;-39
2023/12/10 03:05:31;;;;;;;;;;;;;;;8.49;100.00;99759.75;5124656;28;19974;-40
2023/12/10 03:07:57;;;;;;;;;;;;;;;8.51;100.00;99763.91;5120856;28;19923;-40
2023/12/10 03:10:22;;;;;;;;;;;;;;;8.50;100.00;99756.06;5123093;28;20308;-40
2023/12/10 03:12:47;;;;;;;;;;;;;;;8.54;100.00;99768.06;5120331;28;20072;-40
2023/12/10 03:15:12;;;;;;;;;;;;;;;8.52;100.00;99778.97;5118443;28;19923;-39
2023/12/10 03:17:38;;;;;;;;;;;;;;;8.62;100.00;99770.59;5120508;28;20382;-39
2023/12/10 03:20:03;;;;;;;;;;;;;;;8.65;100.00;99793.50;5125845;28;19928;-38
2023/12/10 03:22:29;;;;;;;;;;;;;;;8.63;100.00;99776.78;5126109;28;19932;-38
2023/12/10 03:24:54;;;;;;;;;;;;;;;8.69;100.00;99787.56;5124080;28;19920;-39
2023/12/10 03:27:19;;;;;;;;;;;;;;;8.73;100.00;99812.13;5118810;28;20010;-39
2023/12/10 03:29:45;;;;;;;;;;;;;;;8.81;100.00;99800.44;5118615;28;19920;-40
2023/12/10 03:32:10;;;;;;;;;;;;;;;8.82;100.00;99824.41;5118293;28;19920;-39
2023/12/10 03:34:35;;;;;;;;;;;;;;;8.83;100.00;99809.13;5116431;28;19919;-39
2023/12/10 03:37:00;;;;;;;;;;;;;;;8.83;100.00;99819.84;5121925;28;19926;-38
2023/12/10 03:39:26;;;;;;;;;;;;;;;8.82;100.00;99812.81;5122227;28;20369;-39
2023/12/10 03:41:51;;;;;;;;;;;;;;;8.87;100.00;99821.09;5120657;28;19958;-39
2023/12/10 03:44:16;;;;;;;;;;;;;;;8.87;100.00;99816.56;5118023;28;19915;-39
2023/12/10 03:46:42;;;;;;;;;;;;;;;8.88;100.00;99825.47;5115960;28;19955;-40
2023/12/10 03:49:07;;;;;;;;;;;;;;;8.85;100.00;99840.09;5116954;28;20409;-39
2023/12/10 03:51:32;;;;;;;;;;;;;;;8.83;100.00;99836.78;5116332;28;20296;-39
2023/12/10 03:53:58;;;;;;;;;;;;;;;8.85;100.00;99824.00;5116403;28;19928;-40
2023/12/10 03:56:23;;;;;;;;;;;;;;;8.89;100.00;99851.25;5115938;28;20317;-39
2023/12/10 03:58:48;;;;;;;;;;;;;;;8.89;100.00;99857.44;5116074;28;20294;-39
2023/12/10 04:01:13;;;;;;;;;;;;;;;8.92;100.00;99878.53;5116687;28;19920;-38
2023/12/10 04:03:39;;;;;;;;;;;;;;;8.91;100.00;99876.88;5115669;28;20293;-39
2023/12/10 04:06:05;;;;;;;;;;;;;;;8.95;100.00;99891.56;5116229;28;19926;-39
2023/12/10 04:08:30;;;;;;;;;;;;;;;8.95;100.00;99909.50;5115493;28;19919;-39
2023/12/10 04:10:55;;;;;;;;;;;;;;;8.96;100.00;99901.28;5116419;28;19919;-39
2023/12/10 04:13:20;;;;;;;;;;;;;;;8.96;100.00;99916.56;5116392;28;19916;-39
2023/12/10 04:15:46;;;;;;;;;;;;;;;8.94;100.00;99907.84;5115828;28;19916;-39
2023/12/10 04:18:12;;;;;;;;;;;;;;;8.94;100.00;99922.09;5115847;28;19953;-39
2023/12/10 04:20:37;;;;;;;;;;;;;;;8.93;100.00;99936.56;5116333;28;20433;-39
2023/12/10 04:23:03;;;;;;;;;;;;;;;8.90;100.00;99945.00;5116722;28;19916;-39
2023/12/10 04:25:28;;;;;;;;;;;;;;;8.92;100.00;99932.19;5115599;28;19915;-40
2023/12/10 04:27:53;;;;;;;;;;;;;;;8.92;100.00;99942.09;5115066;28;19927;-39
2023/12/10 04:30:19;;;;;;;;;;;;;;;8.93;100.00;99943.78;5115452;28;19977;-39
2023/12/10 04:32:45;;;;;;;;;;;;;;;8.90;100.00;99947.69;5113891;28;19927;-40
2023/12/10 04:35:10;;;;;;;;;;;;;;;8.88;100.00;99949.72;5115456;28;19920;-40
2023/12/10 04:37:36;;;;;;;;;;;;;;;8.90;100.00;99950.38;5115626;28;19919;-39
2023/12/10 04:40:01;;;;;;;;;;;;;;;8.96;100.00;99943.38;5115647;28;19915;-40
2023/12/10 04:42:26;;;;;;;;;;;;;;;8.96;100.00;99960.31;5116539;28;19926;-40
2023/12/10 04:44:51;;;;;;;;;;;;;;;8.93;100.00;99960.69;5120959;28;19920;-40
2023/12/10 04:47:17;;;;;;;;;;;;;;;8.94;100.00;99978.44;5119676;28;20176;-40
2023/12/10 04:49:42;;;;;;;;;;;;;;;8.93;100.00;99986.72;5119503;28;19928;-39
2023/12/10 04:52:07;;;;;;;;;;;;;;;8.89;100.00;99991.63;5120776;28;20413;-39
2023/12/10 04:54:32;;;;;;;;;;;;;;;8.86;100.00;99996.53;5115266;28;19981;-39
2023/12/10 04:56:58;;;;;;;;;;;;;;;8.83;100.00;100018.41;5116135;28;19927;-40
2023/12/10 04:59:23;;;;;;;;;;;;;;;8.81;100.00;100018.56;5115571;28;19930;-39
2023/12/10 05:01:48;;;;;;;;;;;;;;;8.84;100.00;100015.50;5116078;28;19984;-39
2023/12/10 05:04:13;;;;;;;;;;;;;;;8.81;100.00;100015.88;5114950;28;19916;-40
2023/12/10 05:06:39;;;;;;;;;;;;;;;8.82;100.00;100012.22;5113485;28;19920;-39
2023/12/10 05:09:04;;;;;;;;;;;;;;;8.78;100.00;100016.28;5116049;28;20386;-40
2023/12/10 05:11:29;;;;;;;;;;;;;;;8.73;100.00;100013.34;5116744;28;19916;-38
2023/12/10 05:13:54;;;;;;;;;;;;;;;8.72;100.00;100031.28;5116218;28;20023;-39
2023/12/10 05:16:20;;;;;;;;;;;;;;;8.73;100.00;100034.78;5116854;28;20425;-39
2023/12/10 05:18:45;;;;;;;;;;;;;;;8.70;100.00;100024.44;5120148;28;19916;-39
2023/12/10 05:21:10;;;;;;;;;;;;;;;8.69;100.00;100041.53;5119625;28;19915;-40
2023/12/10 05:23:35;;;;;;;;;;;;;;;8.70;100.00;100045.91;5118456;28;20347;-38
2023/12/10 05:26:01;;;;;;;;;;;;;;;8.68;100.00;100047.94;5117905;28;20014;-39
2023/12/10 05:28:26;;;;;;;;;;;;;;;8.69;100.00;100054.97;5117843;28;19916;-40
2023/12/10 05:30:51;;;;;;;;;;;;;;;8.67;100.00;100028.34;5118873;28;19937;-38
2023/12/10 05:33:16;;;;;;;;;;;;;;;8.70;100.00;100081.59;5118548;28;19981;-40
2023/12/10 05:35:42;;;;;;;;;;;;;;;8.68;100.00;100088.19;5114080;28;20366;-39
2023/12/10 05:38:09;;;;;;;;;;;;;;;8.68;100.00;100093.53;5114431;28;19916;-39
2023/12/10 05:40:34;;;;;;;;;;;;;;;8.67;100.00;100089.22;5116454;28;19924;-39
2023/12/10 05:42:59;;;;;;;;;;;;;;;8.69;100.00;100093.38;5109120;28;19920;-39
2023/12/10 05:45:25;;;;;;;;;;;;;;;8.70;100.00;100091.50;5117257;28;19982;-40
2023/12/10 05:47:50;;;;;;;;;;;;;;;8.70;100.00;100099.56;5117099;28;19927;-40
2023/12/10 05:50:15;;;;;;;;;;;;;;;8.70;100.00;100107.59;5116887;28;19930;-39
2023/12/10 05:52:40;;;;;;;;;;;;;;;8.72;100.00;100113.63;5115454;28;20377;-39
2023/12/10 05:55:06;;;;;;;;;;;;;;;8.72;100.00;100102.91;5118435;28;19916;-38
2023/12/10 05:57:31;;;;;;;;;;;;;;;8.78;100.00;100096.78;5119423;28;20061;-39
2023/12/10 05:59:56;;;;;;;;;;;;;;;8.74;100.00;100117.78;5117958;28;19916;-40
2023/12/10 06:02:22;;;;;;;;;;;;;;;8.78;100.00;100120.91;5119439;28;20369;-38
2023/12/10 06:04:47;;;;;;;;;;;;;;;8.77;100.00;100135.38;5120273;28;19965;-39
2023/12/10 06:07:12;;;;;;;;;;;;;;;8.80;100.00;100137.66;5119773;28;19924;-40
2023/12/10 06:09:38;;;;;;;;;;;;;;;8.81;100.00;100155.41;5120651;28;19924;-41
2023/12/10 06:12:03;;;;;;;;;;;;;;;8.84;100.00;100146.16;5120307;28;19924;-39
2023/12/10 06:14:28;;;;;;;;;;;;;;;8.81;100.00;100158.09;5118611;28;19915;-39
2023/12/10 06:16:53;;;;;;;;;;;;;;;8.77;100.00;100175.59;5117577;28;19938;-40
2023/12/10 06:19:19;;;;;;;;;;;;;;;8.79;100.00;100179.75;5118547;28;19932;-39
2023/12/10 06:21:44;;;;;;;;;;;;;;;8.81;100.00;100160.78;5119915;28;20282;-39
2023/12/10 06:24:09;;;;;;;;;;;;;;;8.80;100.00;100191.31;5119875;28;19916;-41
2023/12/10 06:26:35;;;;;;;;;;;;;;;8.76;100.00;100216.84;5119825;28;19916;-40
2023/12/10 06:29:00;;;;;;;;;;;;;;;8.77;100.00;100207.81;5117823;28;20162;-40
2023/12/10 06:31:25;;;;;;;;;;;;;;;8.79;100.00;100200.38;5113933;28;20266;-39
2023/12/10 06:33:50;;;;;;;;;;;;;;;8.78;100.00;100198.72;5113431;28;20002;-41
2023/12/10 06:36:16;;;;;;;;;;;;;;;8.80;100.00;100215.47;5114335;28;19915;-40
2023/12/10 06:38:41;;;;;;;;;;;;;;;8.81;100.00;100206.41;5115857;28;19934;-39
2023/12/10 06:41:06;;;;;;;;;;;;;;;8.76;100.00;100196.22;5116350;28;19967;-39
2023/12/10 06:43:32;;;;;;;;;;;;;;;8.76;100.00;100212.31;5117144;28;19968;-37
2023/12/10 06:45:58;;;;;;;;;;;;;;;8.73;100.00;100227.97;5116128;28;19920;-40
2023/12/10 06:48:23;;;;;;;;;;;;;;;8.74;100.00;100233.16;5118211;28;19916;-40
2023/12/10 06:50:49;;;;;;;;;;;;;;;8.75;100.00;100233.97;5118441;28;19922;-40
2023/12/10 06:53:14;;;;;;;;;;;;;;;8.72;100.00;100220.94;5114562;28;19924;-40
2023/12/10 06:55:41;;;;;;;;;;;;;;;8.68;100.00;100255.31;5102239;28;19931;-39
2023/12/10 06:58:06;;;;;;;;;;;;;;;8.71;100.00;100268.38;5112337;28;20310;-40
2023/12/10 07:00:32;;;;;;;;;;;;;;;8.68;100.00;100258.00;5112372;28;19919;-40
2023/12/10 07:02:57;;;;;;;;;;;;;;;8.70;100.00;100279.31;5112111;28;19930;-39
2023/12/10 07:05:23;;;;;;;;;;;;;;;8.68;100.00;100273.28;5111815;28;19927;-39
2023/12/10 07:07:48;;;;;;;;;;;;;;;8.68;100.00;100278.66;5111780;28;20000;-40
2023/12/10 07:10:14;;;;;;;;;;;;;;;8.68;100.00;100281.31;5111857;28;19923;-39
2023/12/10 07:12:39;;;;;;;;;;;;;;;8.68;100.00;100284.00;5111442;28;20015;-41
2023/12/10 07:15:04;;;;;;;;;;;;;;;8.71;100.00;100272.91;5111660;28;19945;-39
2023/12/10 07:17:30;;;;;;;;;;;;;;;8.67;100.00;100283.19;5110539;28;19977;-39
2023/12/10 07:19:55;;;;;;;;;;;;;;;8.66;100.00;100292.25;5111976;28;20004;-39
2023/12/10 07:22:21;;;;;;;;;;;;;;;8.66;100.00;100307.50;5112727;28;19923;-40
2023/12/10 07:24:46;;;;;;;;;;;;;;;8.66;100.00;100302.13;5111723;28;19920;-40
2023/12/10 07:27:11;;;;;;;;;;;;;;;8.67;100.00;100309.19;5111155;28;19920;-40
2023/12/10 07:29:37;;;;;;;;;;;;;;;8.69;100.00;100317.84;5113788;28;20092;-39
2023/12/10 07:32:02;;;;;;;;;;;;;;;8.66;100.00;100324.44;5114524;28;19920;-39
2023/12/10 07:34:27;;;;;;;;;;;;;;;8.66;100.00;100323.59;5111511;28;20418;-40
2023/12/10 07:36:53;;;;;;;;;;;;;;;8.67;100.00;100327.97;5111365;28;20425;-38
2023/12/10 07:39:18;;;;;;;;;;;;;;;8.67;100.00;100327.97;5110851;28;19915;-40
2023/12/10 07:41:44;;;;;;;;;;;;;;;8.66;100.00;100345.06;5110305;28;19920;-40
2023/12/10 07:44:09;;;;;;;;;;;;;;;8.67;100.00;100341.38;5115258;28;19923;-39
2023/12/10 07:46:34;;;;;;;;;;;;;;;8.67;100.00;100349.44;5113328;28;19980;-38
2023/12/10 07:48:59;;;;;;;;;;;;;;;8.68;100.00;100348.41;5115197;28;20535;-39
2023/12/10 07:51:25;;;;;;;;;;;;;;;8.67;100.00;100352.09;5115634;28;19920;-39
2023/12/10 07:53:50;;;;;;;;;;;;;;;8.66;100.00;100350.41;5116022;28;20421;-40
2023/12/10 07:56:15;;;;;;;;;;;;;;;8.65;100.00;100351.44;5118954;28;19920;-39
2023/12/10 07:58:40;;;;;;;;;;;;;;;8.64;100.00;100350.63;5120898;28;19969;-40
2023/12/10 08:01:09;;;;;;;;;;;;;;;8.67;100.00;100352.09;5120457;28;19931;-40
2023/12/10 08:03:34;;;;;;;;;;;;;;;8.63;100.00;100361.50;5116006;28;20464;-40
2023/12/10 08:06:00;;;;;;;;;;;;;;;8.63;100.00;100361.50;5116881;28;19934;-39
2023/12/10 08:08:25;;;;;;;;;;;;;;;8.64;100.00;100396.22;5115612;28;19927;-39
2023/12/10 08:10:51;;;;;;;;;;;;;;;8.66;100.00;100371.88;5114573;28;19920;-41
2023/12/10 08:13:16;;;;;;;;;;;;;;;8.71;100.00;100374.84;5114396;28;19927;-40
2023/12/10 08:15:41;;;;;;;;;;;;;;;8.72;100.00;100379.22;5113771;28;19923;-38
2023/12/10 08:18:06;;;;;;;;;;;;;;;8.72;100.00;100376.53;5113382;28;20373;-39
2023/12/10 08:20:32;;;;;;;;;;;;;;;8.73;100.00;100378.19;5110152;28;19928;-39
2023/12/10 08:22:57;;;;;;;;;;;;;;;8.74;100.00;100387.91;5114447;28;19970;-40
2023/12/10 08:25:22;;;;;;;;;;;;;;;8.76;100.00;100385.88;5114632;28;19919;-41
2023/12/10 08:27:48;;;;;;;;;;;;;;;8.75;100.00;100393.09;5114442;28;19985;-39
2023/12/10 08:30:13;;;;;;;;;;;;;;;8.77;100.00;100400.97;5114248;28;19927;-38
2023/12/10 08:32:39;;;;;;;;;;;;;;;8.76;100.00;100400.13;5115380;28;19922;-39
2023/12/10 08:35:04;;;;;;;;;;;;;;;8.79;100.00;100390.88;5115133;28;19930;-39
2023/12/10 08:37:29;;;;;;;;;;;;;;;8.78;100.00;100392.72;5113506;28;19935;-42
2023/12/10 08:39:55;;;;;;;;;;;;;;;8.79;100.00;100394.41;5111182;28;19916;-39
2023/12/10 08:42:21;;;;;;;;;;;;;;;8.81;100.00;100404.97;5112266;28;19988;-40
2023/12/10 08:44:46;;;;;;;;;;;;;;;8.89;100.00;100407.56;5112613;28;20510;-38
2023/12/10 08:47:11;;;;;;;;;;;;;;;8.92;100.00;100409.88;5113163;28;19923;-39
2023/12/10 08:49:37;;;;;;;;;;;;;;;8.83;100.00;100404.78;5113146;28;20006;-39
2023/12/10 08:52:03;;;;;;;;;;;;;;;8.74;100.00;100423.63;5113089;27;19936;-37
2023/12/10 08:54:28;;;;;;;;;;;;;;;8.76;100.00;100415.41;5112704;28;20061;-39
2023/12/10 08:56:53;;;;;;;;;;;;;;;8.75;100.00;100409.19;5113217;28;20002;-39
2023/12/10 08:59:21;;;;;;;;;;;;;;;8.71;100.00;100412.41;5115002;28;19920;-40
2023/12/10 09:01:46;;;;;;;;;;;;;;;8.71;100.00;100412.41;5106163;28;19920;-38
2023/12/10 09:04:11;;;;;;;;;;;;;;;8.71;100.00;100423.97;5114775;28;19919;-39
2023/12/10 09:06:36;;;;;;;;;;;;;;;8.91;100.00;100445.78;5113817;28;20061;-40
2023/12/10 09:09:02;;;;;;;;;;;;;;;9.00;100.00;100450.09;5113779;28;19924;-38
2023/12/10 09:11:27;;;;;;;;;;;;;;;9.08;100.00;100448.31;5112832;28;20031;-39
2023/12/10 09:13:52;;;;;;;;;;;;;;;9.17;100.00;100439.19;5113691;28;19916;-39
2023/12/10 09:16:18;;;;;;;;;;;;;;;9.28;100.00;100441.44;5114399;28;20418;-40
2023/12/10 09:18:43;;;;;;;;;;;;;;;9.53;100.00;100422.34;5114866;28;19945;-39
2023/12/10 09:21:10;;;;;;;;;;;;;;;9.80;100.00;100431.63;5114111;28;20297;-40
2023/12/10 09:23:36;;;;;;;;;;;;;;;10.12;100.00;100435.75;5116083;28;19920;-40
2023/12/10 09:26:01;;;;;;;;;;;;;;;10.46;100.00;100427.03;5115320;28;19943;-39
2023/12/10 09:28:27;;;;;;;;;;;;;;;10.70;100.00;100430.38;5114356;28;20018;-40
2023/12/10 09:30:52;;;;;;;;;;;;;;;10.87;100.00;100431.75;5116846;28;19927;-40
2023/12/10 09:33:17;;;;;;;;;;;;;;;11.08;100.00;100443.53;5116397;28;19920;-39
2023/12/10 09:35:42;;;;;;;;;;;;;;;10.94;100.00;100456.06;5112410;28;20285;-40
2023/12/10 09:38:08;;;;;;;;;;;;;;;10.81;100.00;100450.56;5114736;27;19927;-40
2023/12/10 09:40:33;;;;;;;;;;;;;;;10.64;100.00;100458.06;5111929;28;19919;-40
2023/12/10 09:42:59;;;;;;;;;;;;;;;10.60;100.00;100462.97;5112654;28;19923;-39
2023/12/10 09:45:24;;;;;;;;;;;;;;;10.49;100.00;100472.41;5132761;27;20253;-39
2023/12/10 09:47:50;;;;;;;;;;;;;;;10.65;100.00;100471.31;5134511;27;19926;-40
2023/12/10 09:50:15;;;;;;;;;;;;;;;10.85;100.00;100463.44;5135341;27;20639;-39
2023/12/10 09:52:41;;;;;;;;;;;;;;;10.85;100.00;100476.06;5133867;27;19915;-40
2023/12/10 09:55:06;;;;;;;;;;;;;;;10.99;100.00;100465.22;5126069;27;19959;-40
2023/12/10 09:57:31;;;;;;;;;;;;;;;11.02;100.00;100463.19;5114736;28;19919;-41
2023/12/10 09:59:57;;;;;;;;;;;;;;;10.38;100.00;100464.81;5128578;27;20010;-41
2023/12/10 10:02:29;;;;;;;;;;;;;;;10.49;100.00;100458.94;5117850;28;20312;-39
2023/12/10 10:04:55;;;;;;;;;;;;;;;10.33;100.00;100468.09;5120988;27;19964;-40
2023/12/10 10:07:20;;;;;;;;;;;;;;;10.25;100.00;100470.03;5117830;28;20047;-39
2023/12/10 10:09:46;;;;;;;;;;;;;;;10.15;100.00;100464.94;5116410;28;19920;-39
2023/12/10 10:12:13;;;;;;;;;;;;;;;10.11;100.00;100460.97;5114612;28;19919;-38
2023/12/10 10:14:39;;;;;;;;;;;;;;;10.22;100.00;100465.84;5114093;28;19915;-39
2023/12/10 10:17:04;;;;;;;;;;;;;;;10.14;100.00;100470.50;5112262;27;19923;-39
2023/12/10 10:19:29;;;;;;;;;;;;;;;10.14;100.00;100465.97;5113346;28;19922;-38
2023/12/10 10:21:55;;;;;;;;;;;;;;;10.00;100.00;100456.06;5113185;28;19920;-39
2023/12/10 10:24:20;;;;;;;;;;;;;;;9.97;100.00;100456.44;5113057;28;20015;-42
2023/12/10 10:26:45;;;;;;;;;;;;;;;10.02;100.00;100459.41;5113237;28;20364;-38
2023/12/10 10:29:10;;;;;;;;;;;;;;;10.11;100.00;100445.66;5113140;28;19934;-38
2023/12/10 10:31:36;;;;;;;;;;;;;;;10.18;100.00;100453.78;5115772;28;19923;-39
2023/12/10 10:34:02;;;;;;;;;;;;;;;10.26;100.00;100439.41;5114729;28;19959;-39
2023/12/10 10:36:27;;;;;;;;;;;;;;;10.39;100.00;100439.59;5113282;28;19967;-39
2023/12/10 10:38:52;;;;;;;;;;;;;;;10.51;100.00;100448.00;5114477;28;19923;-38
2023/12/10 10:41:18;;;;;;;;;;;;;;;10.85;100.00;100444.59;5085560;28;20408;-39
2023/12/10 10:43:43;;;;;;;;;;;;;;;11.04;100.00;100439.59;5095851;28;19927;-41
2023/12/10 10:46:09;;;;;;;;;;;;;;;11.02;100.00;100436.25;5098307;28;19923;-40
2023/12/10 10:48:35;;;;;;;;;;;;;;;11.23;100.00;100430.81;5113894;28;20322;-39
2023/12/10 10:51:00;;;;;;;;;;;;;;;11.46;100.00;100438.66;5112332;28;19927;-40
2023/12/10 10:53:25;;;;;;;;;;;;;;;11.46;100.00;100435.94;5113767;28;20357;-39
2023/12/10 10:55:50;;;;;;;;;;;;;;;11.45;100.00;100436.13;5113213;28;20002;-39
2023/12/10 10:58:27;;;;;;;;;;;;;;;11.64;100.00;100428.19;5095218;28;20294;-41
2023/12/10 11:00:52;;;;;;;;;;;;;;;11.95;100.00;100424.19;5113731;28;20323;-39
2023/12/10 11:03:17;;;;;;;;;;;;;;;12.27;100.00;100411.03;5113171;28;19916;-40
2023/12/10 11:05:42;;;;;;;;;;;;;;;12.15;100.00;100412.66;5110626;28;19999;-40
2023/12/10 11:08:08;;;;;;;;;;;;;;;12.26;100.00;100412.06;5112053;28;19965;-40
2023/12/10 11:10:34;;;;;;;;;;;;;;;12.07;100.00;100406.41;5115335;28;20321;-40
2023/12/10 11:13:00;;;;;;;;;;;;;;;12.24;100.00;100395.22;5118038;28;20001;-40
2023/12/10 11:15:26;;;;;;;;;;;;;;;12.16;100.00;100398.13;5115535;28;20015;-39
2023/12/10 11:17:54;;;;;;;;;;;;;;;12.08;100.00;100399.13;5119247;28;19984;-40
2023/12/10 11:20:39;;;;;;;;;;;;;;;11.91;100.00;100412.16;5120586;28;20057;-40
2023/12/10 11:23:05;;;;;;;;;;;;;;;11.68;100.00;100396.25;5121695;28;20360;-40
2023/12/10 11:25:31;;;;;;;;;;;;;;;11.83;100.00;100407.72;5119244;28;19968;-39
2023/12/10 11:27:59;;;;;;;;;;;;;;;11.81;100.00;100403.56;5117259;28;19916;-40
2023/12/10 11:30:25;;;;;;;;;;;;;;;11.56;100.00;100396.00;5116861;28;20017;-39
2023/12/10 11:32:50;;;;;;;;;;;;;;;11.30;100.00;100393.97;5123174;28;19916;-41
2023/12/10 11:35:16;;;;;;;;;;;;;;;11.25;100.00;100398.31;5121845;28;19915;-40
2023/12/10 11:37:42;;;;;;;;;;;;;;;11.08;100.00;100395.88;5116981;28;19941;-39
2023/12/10 11:40:08;;;;;;;;;;;;;;;10.88;100.00;100400.31;5116865;28;20373;-40
2023/12/10 11:42:33;;;;;;;;;;;;;;;10.71;100.00;100392.50;5116514;28;20017;-39
2023/12/10 11:44:58;;;;;;;;;;;;;;;10.72;100.00;100396.88;5117307;28;20235;-40
2023/12/10 11:47:23;;;;;;;;;;;;;;;10.63;100.00;100395.31;5116375;28;19916;-39
2023/12/10 11:49:49;;;;;;;;;;;;;;;10.76;100.00;100392.75;5114969;28;20018;-39
2023/12/10 11:52:14;;;;;;;;;;;;;;;10.74;100.00;100389.44;5116387;28;19969;-39
2023/12/10 11:54:39;;;;;;;;;;;;;;;10.93;100.00;100392.47;5116238;28;19916;-39
2023/12/10 11:57:05;;;;;;;;;;;;;;;10.75;100.00;100396.47;5114909;28;20277;-40
2023/12/10 11:59:30;;;;;;;;;;;;;;;10.79;100.00;100385.31;5114933;28;20024;-40
2023/12/10 12:01:56;;;;;;;;;;;;;;;10.64;100.00;100388.94;5115676;28;19945;-40
2023/12/10 12:04:23;;;;;;;;;;;;;;;10.50;100.00;100392.50;5117399;28;19923;-40
2023/12/10 12:06:48;;;;;;;;;;;;;;;10.37;100.00;100387.00;5115794;28;20378;-39
2023/12/10 12:09:15;;;;;;;;;;;;;;;10.29;100.00;100398.72;5116267;28;19927;-40
2023/12/10 12:11:40;;;;;;;;;;;;;;;10.29;100.00;100396.88;5117932;28;19943;-40
2023/12/10 12:14:05;;;;;;;;;;;;;;;10.19;100.00;100384.72;5121711;28;19920;-40
2023/12/10 12:16:30;;;;;;;;;;;;;;;10.12;100.00;100384.66;5120581;28;19923;-40
2023/12/10 12:18:56;;;;;;;;;;;;;;;10.18;100.00;100377.69;5116097;28;20374;-39
2023/12/10 12:21:21;;;;;;;;;;;;;;;10.18;100.00;100373.13;5117781;28;19916;-40
2023/12/10 12:23:47;;;;;;;;;;;;;;;10.11;100.00;100367.69;5116336;28;19916;-40
2023/12/10 12:26:13;;;;;;;;;;;;;;;10.14;100.00;100366.47;5117440;28;20334;-39
2023/12/10 12:28:38;;;;;;;;;;;;;;;10.05;100.00;100365.75;5116849;28;19916;-40